Time;durP1;ratioP1;P1;durP2;ratioP2;P2;SDS_P1;SDS_P2;PMS_P1;PMS_P2;Temp;Humidity;BMP_temperature;BMP_pressure;BME280_temperature;BME280_humidity;BME280_pressure;Samples;Min_cycle;Max_cycle;Signal;HPM_P1;HPM_P2
2023/04/07 00:00:03;;;;;;;;;;;11.00;69.40;;;11.31;50.52;98728.06;4993236;28;114014;-74
2023/04/07 00:02:31;;;;;;;;;;;10.90;70.40;;;11.29;49.96;98724.78;5005703;28;124074;-76
2023/04/07 00:05:01;;;;;;;;;;;10.90;70.60;;;11.25;50.27;98721.00;4996894;28;124121;-76
2023/04/07 00:07:27;;;;;;;;;;;10.90;70.80;;;11.22;50.43;98728.00;5006393;28;113712;-77
2023/04/07 00:09:56;;;;;;;;;;;10.90;71.40;;;11.20;50.32;98715.63;4992916;28;114009;-76
2023/04/07 00:12:22;;;;;;;;;;;10.80;71.30;;;11.16;50.87;98715.44;5012957;28;124127;-76
2023/04/07 00:14:51;;;;;;;;;;;10.90;71.50;;;11.16;50.76;98706.34;4984729;28;122956;-75
2023/04/07 00:17:17;;;;;;;;;;;10.80;71.30;;;11.17;50.52;98710.72;5019027;28;115639;-76
2023/04/07 00:19:43;;;;;;;;;;;10.80;71.60;;;11.17;50.75;98710.72;4990890;28;114051;-75
2023/04/07 00:22:12;;;;;;;;;;;10.90;71.70;;;11.15;50.69;98701.94;4988562;28;124256;-74
2023/04/07 00:24:38;;;;;;;;;;;10.80;71.60;;;11.15;50.80;98704.69;4991368;28;123714;-74
2023/04/07 00:27:05;;;;;;;;;;;10.80;71.80;;;11.13;50.66;98701.44;5014988;28;114595;-75
2023/04/07 00:29:33;;;;;;;;;;;10.80;71.80;;;11.13;50.59;98699.50;5018154;27;114146;-74
2023/04/07 00:31:59;;;;;;;;;;;10.80;71.90;;;11.14;51.03;98690.06;5002232;28;123179;-74
2023/04/07 00:34:26;;;;;;;;;;;10.80;73.10;;;11.12;51.15;98686.78;4982712;28;123351;-76
2023/04/07 00:36:52;;;;;;;;;;;10.80;73.00;;;11.08;50.78;98685.00;4999322;28;113556;-74
2023/04/07 00:39:19;;;;;;;;;;;10.70;72.60;;;11.06;51.18;98677.81;5015573;28;113278;-75
2023/04/07 00:41:48;;;;;;;;;;;10.80;72.70;;;11.07;50.86;98678.66;4994525;28;124795;-76
2023/04/07 00:44:14;;;;;;;;;;;10.90;72.80;;;11.10;50.76;98683.56;5010878;28;123488;-77
2023/04/07 00:46:41;;;;;;;;;;;10.80;72.80;;;11.12;50.56;98683.22;4997635;28;114532;-76
2023/04/07 00:49:07;;;;;;;;;;;10.80;72.90;;;11.12;50.83;98681.25;5017387;28;113554;-76
2023/04/07 00:51:33;;;;;;;;;;;10.80;73.00;;;11.11;51.37;98685.16;5017125;27;124150;-75
2023/04/07 00:54:00;;;;;;;;;;;10.80;73.40;;;11.10;50.93;98671.69;5035153;27;123920;-74
2023/04/07 00:56:27;;;;;;;;;;;10.80;73.50;;;11.08;50.85;98668.41;5037406;27;114616;-77
2023/04/07 00:58:55;;;;;;;;;;;10.80;73.30;;;11.02;50.83;98654.72;4993389;28;113153;-76
2023/04/07 01:01:27;;;;;;;;;;;10.80;73.30;;;10.98;51.05;98662.00;4989187;28;124342;-77
2023/04/07 01:03:57;;;;;;;;;;;10.70;73.20;;;10.98;51.07;98653.72;5006683;28;123557;-73
2023/04/07 01:06:26;;;;;;;;;;;10.70;73.30;;;11.00;51.34;98653.41;5000476;28;114863;-75
2023/04/07 01:09:05;;;;;;;;;;;10.70;73.50;;;11.01;51.34;98653.06;5005167;28;114262;-75
2023/04/07 01:11:41;;;;;;;;;;;10.70;73.70;;;10.97;51.50;98640.22;5005233;28;124872;-75
2023/04/07 01:14:10;;;;;;;;;;;10.70;74.10;;;10.94;51.57;98638.09;5031207;27;124559;-76
2023/04/07 01:16:41;;;;;;;;;;;10.70;74.20;;;10.94;51.70;98633.38;5003745;28;114830;-75
2023/04/07 01:19:19;;;;;;;;;;;10.70;74.40;;;10.93;51.52;98639.22;5022967;27;113579;-75
2023/04/07 01:21:46;;;;;;;;;;;10.70;74.60;;;10.92;51.36;98634.84;5000296;28;124424;-74
2023/04/07 01:24:37;;;;;;;;;;;10.70;74.70;;;10.88;51.45;98628.31;5040836;27;123967;-74
2023/04/07 01:27:23;;;;;;;;;;;10.60;74.60;;;10.84;51.74;98631.72;5006327;28;114854;-75
2023/04/07 01:29:53;;;;;;;;;;;10.60;74.80;;;10.82;52.04;98627.63;4986437;28;113603;-74
2023/04/07 01:32:20;;;;;;;;;;;10.60;74.90;;;10.82;51.95;98622.09;4986315;28;123937;-74
2023/04/07 01:34:48;;;;;;;;;;;10.60;75.40;;;10.83;51.71;98627.31;4994518;28;122911;-77
2023/04/07 01:37:15;;;;;;;;;;;10.60;75.60;;;10.86;52.01;98623.13;5002704;28;114428;-76
2023/04/07 01:39:42;;;;;;;;;;;10.60;75.70;;;10.86;52.08;98625.88;5017564;28;113148;-75
2023/04/07 01:42:08;;;;;;;;;;;10.60;76.20;;;10.82;52.23;98616.59;5019870;27;124203;-75
2023/04/07 01:44:35;;;;;;;;;;;10.70;76.30;;;10.82;52.22;98622.09;5009001;28;123324;-76
2023/04/07 01:47:02;;;;;;;;;;;10.50;76.10;;;10.80;52.44;98624.38;4991052;28;114396;-75
2023/04/07 01:49:30;;;;;;;;;;;10.50;76.20;;;10.80;52.19;98613.31;5006839;28;113907;-75
2023/04/07 01:51:57;;;;;;;;;;;10.50;76.40;;;10.77;52.33;98613.94;5005887;28;124379;-75
2023/04/07 01:54:27;;;;;;;;;;;10.50;76.70;;;10.73;52.64;98608.25;5019290;28;123716;-74
2023/04/07 01:56:55;;;;;;;;;;;10.50;76.60;;;10.71;52.32;98609.72;4990231;28;115496;-75
2023/04/07 01:59:21;;;;;;;;;;;10.50;76.60;;;10.71;52.56;98602.22;4974268;28;114574;-75
2023/04/07 02:01:47;;;;;;;;;;;10.50;76.70;;;10.72;52.04;98603.88;4994430;28;124639;-73
2023/04/07 02:04:17;;;;;;;;;;;10.50;76.70;;;10.74;52.15;98603.53;4991932;28;124358;-76
2023/04/07 02:06:59;;;;;;;;;;;10.50;77.00;;;10.73;52.23;98607.44;4990488;28;114781;-74
2023/04/07 02:09:28;;;;;;;;;;;10.50;77.00;;;10.71;52.08;98604.19;4989553;28;114006;-74
2023/04/07 02:12:00;;;;;;;;;;;10.40;76.90;;;10.70;52.38;98602.56;5021072;28;124899;-75
2023/04/07 02:14:29;;;;;;;;;;;10.40;77.00;;;10.69;52.35;98598.97;5023259;28;124289;-75
2023/04/07 02:17:00;;;;;;;;;;;10.40;77.40;;;10.70;52.75;98591.50;4994348;28;114560;-74
2023/04/07 02:19:26;;;;;;;;;;;10.40;77.40;;;10.69;52.53;98595.38;5017892;28;113972;-73
2023/04/07 02:21:54;;;;;;;;;;;10.40;77.40;;;10.70;52.76;98594.28;4989516;28;124313;-74
2023/04/07 02:24:21;;;;;;;;;;;10.40;77.50;;;10.69;52.62;98589.88;5012006;28;124570;-73
2023/04/07 02:26:50;;;;;;;;;;;10.40;77.50;;;10.67;52.34;98592.97;4988453;28;113524;-74
2023/04/07 02:29:16;;;;;;;;;;;10.40;77.60;;;10.66;52.32;98591.31;4989489;28;114245;-74
2023/04/07 02:31:43;;;;;;;;;;;10.40;77.60;;;10.67;52.42;98581.91;4989405;28;124745;-74
2023/04/07 02:34:11;;;;;;;;;;;10.40;77.70;;;10.66;52.45;98583.03;4991346;28;123019;-74
2023/04/07 02:36:38;;;;;;;;;;;10.40;77.90;;;10.65;52.66;98577.84;5005114;28;114455;-73
2023/04/07 02:39:04;;;;;;;;;;;10.30;77.90;;;10.64;52.76;98582.56;5021312;28;113285;-75
2023/04/07 02:41:30;;;;;;;;;;;10.30;77.90;;;10.64;52.75;98577.03;4958600;28;124027;-74
2023/04/07 02:43:56;;;;;;;;;;;10.30;78.00;;;10.63;52.16;98563.50;4989291;28;123893;-74
2023/04/07 02:46:23;;;;;;;;;;;10.40;78.00;;;10.61;52.49;98577.63;4986977;28;115435;-75
2023/04/07 02:48:49;;;;;;;;;;;10.40;78.00;;;10.59;52.66;98574.41;4987872;28;114809;-74
2023/04/07 02:51:15;;;;;;;;;;;10.30;77.90;;;10.58;52.62;98568.03;5006710;28;123967;-74
2023/04/07 02:53:41;;;;;;;;;;;10.30;77.90;;;10.57;52.29;98566.41;4989677;28;123614;-75
2023/04/07 02:56:08;;;;;;;;;;;10.30;78.00;;;10.56;52.29;98564.78;5021140;28;114673;-74
2023/04/07 02:58:34;;;;;;;;;;;10.30;78.10;;;10.58;52.55;98568.03;4991554;28;112983;-74
2023/04/07 03:01:00;;;;;;;;;;;11.10;79.00;;;10.58;52.37;98556.97;4989633;28;124053;-74
2023/04/07 03:03:27;;;;;;;;;;;10.30;78.10;;;10.59;52.01;98555.88;4978137;28;123890;-74
2023/04/07 03:05:53;;;;;;;;;;;10.30;78.10;;;10.63;52.31;98552.47;4991544;28;114248;-74
2023/04/07 03:08:22;;;;;;;;;;;10.30;78.00;;;10.66;52.48;98552.63;5001030;28;112718;-73
2023/04/07 03:10:48;;;;;;;;;;;10.40;78.20;;;10.68;52.18;98555.09;5020162;28;125035;-74
2023/04/07 03:13:17;;;;;;;;;;;10.30;78.10;;;10.69;51.96;98545.66;4974591;28;123615;-74
2023/04/07 03:15:44;;;;;;;;;;;10.40;78.30;;;10.71;51.88;98540.63;4991892;28;114714;-74
2023/04/07 03:18:10;;;;;;;;;;;10.40;78.20;;;10.73;51.85;98547.47;4989771;28;113850;-74
2023/04/07 03:20:37;;;;;;;;;;;10.40;78.40;;;10.73;51.77;98546.66;4988761;28;124196;-75
2023/04/07 03:23:03;;;;;;;;;;;10.40;78.40;;;10.74;51.85;98549.09;5002677;28;123083;-75
2023/04/07 03:25:32;;;;;;;;;;;10.40;78.30;;;10.76;51.84;98548.78;4998453;28;114176;-74
2023/04/07 03:28:01;;;;;;;;;;;10.40;78.30;;;10.75;51.79;98538.88;5022947;28;113539;-74
2023/04/07 03:30:30;;;;;;;;;;;10.40;78.30;;;10.76;51.76;98546.00;5007717;28;123291;-75
2023/04/07 03:32:56;;;;;;;;;;;10.40;78.20;;;10.76;51.61;98537.72;4985772;28;123401;-74
2023/04/07 03:35:27;;;;;;;;;;;10.50;78.20;;;10.76;51.76;98532.19;4986628;28;114934;-74
2023/04/07 03:38:27;;;;;;;;;;;10.40;78.10;;;10.76;51.59;98535.78;4994014;28;114159;-74
2023/04/07 03:40:57;;;;;;;;;;;10.40;78.10;;;10.77;51.76;98528.28;5018458;27;124346;-74
2023/04/07 03:43:55;;;;;;;;;;;10.40;78.10;;;10.73;51.56;98525.38;4988814;28;123178;-76
2023/04/07 03:46:22;;;;;;;;;;;10.50;78.10;;;10.73;51.85;98532.84;4973746;28;113640;-76
2023/04/07 03:49:21;;;;;;;;;;;10.40;77.90;;;10.70;51.50;98523.25;4932338;28;114187;-75
2023/04/07 03:51:48;;;;;;;;;;;10.40;78.00;;;10.67;51.94;98529.41;4956202;28;124414;-74
2023/04/07 03:54:16;;;;;;;;;;;10.40;78.00;;;10.67;52.02;98531.38;4946260;28;122722;-75
2023/04/07 03:57:21;;;;;;;;;;;10.40;78.00;;;10.68;51.72;98527.47;4938244;28;113407;-75
2023/04/07 04:00:20;;;;;;;;;;;10.40;78.10;;;10.66;51.69;98525.00;4950244;28;113820;-75
2023/04/07 04:02:55;;;;;;;;;;;10.40;78.10;;;10.67;51.97;98523.06;4948124;28;123210;-73
2023/04/07 04:05:21;;;;;;;;;;;10.40;78.10;;;10.67;52.01;98515.59;4934605;28;124066;-74
2023/04/07 04:07:59;;;;;;;;;;;10.40;78.20;;;10.69;51.93;98521.59;4941752;28;114625;-74
2023/04/07 04:10:41;;;;;;;;;;;10.40;78.20;;;10.71;51.46;98519.34;4916056;28;113606;-74
2023/04/07 04:13:56;;;;;;;;;;;10.40;78.20;;;10.70;51.94;98514.16;4931717;28;124369;-74
2023/04/07 04:17:09;;;;;;;;;;;10.40;78.30;;;10.65;51.55;98517.06;4891414;28;124169;-74
2023/04/07 04:19:48;;;;;;;;;;;10.40;78.20;;;10.63;51.72;98516.53;4803031;29;114082;-74
2023/04/07 04:22:15;;;;;;;;;;;10.30;78.10;;;10.61;51.71;98517.69;4837086;28;114370;-73
2023/04/07 04:28:30;;;;;;;;;;;10.30;78.20;;;10.54;51.95;98511.81;4885900;28;124455;-75
2023/04/07 04:31:07;;;;;;;;;;;10.30;78.20;;;10.56;52.07;98509.56;4888285;28;114585;-74
2023/04/07 04:33:39;;;;;;;;;;;10.30;78.10;;;10.60;52.02;98509.72;4912125;28;114897;-76
2023/04/07 04:36:14;;;;;;;;;;;10.30;78.20;;;10.64;51.75;98510.72;4900916;28;123293;-74
2023/04/07 04:38:44;;;;;;;;;;;10.30;78.20;;;10.68;51.69;98508.94;4916757;28;124531;-75
2023/04/07 04:41:58;;;;;;;;;;;10.40;78.30;;;10.70;51.38;98508.63;4918793;28;114448;-74
2023/04/07 04:44:24;;;;;;;;;;;10.40;78.30;;;10.71;51.62;98510.22;4884670;28;114830;-74
2023/04/07 04:47:15;;;;;;;;;;;10.40;78.30;;;10.71;51.61;98513.00;4885325;28;124475;-73
2023/04/07 04:49:53;;;;;;;;;;;10.40;78.20;;;10.71;51.64;98521.28;4872243;28;123237;-76
2023/04/07 04:52:27;;;;;;;;;;;10.40;78.10;;;10.70;51.62;98508.63;4879681;28;114290;-74
2023/04/07 04:58:33;;;;;;;;;;;10.40;78.10;;;10.67;51.29;98510.06;4908586;28;124836;-74
2023/04/07 05:04:22;;;;;;;;;;;10.40;78.30;;;10.63;51.85;98503.53;4991067;28;113005;-76
2023/04/07 05:07:30;;;;;;;;;;;10.40;78.00;;;10.61;51.29;98509.41;5013550;28;114369;-76
2023/04/07 05:10:26;;;;;;;;;;;10.40;78.10;;;10.61;51.49;98514.09;4983233;28;124323;-76
2023/04/07 05:13:06;;;;;;;;;;;10.30;78.00;;;10.61;51.25;98514.94;5006059;28;124103;-77
2023/04/07 05:15:47;;;;;;;;;;;10.40;78.70;;;10.64;51.73;98515.41;4993242;28;113526;-76
2023/04/07 05:18:25;;;;;;;;;;;10.30;78.00;;;10.66;51.56;98519.47;4981047;28;113742;-74
2023/04/07 05:20:58;;;;;;;;;;;10.40;78.10;;;10.65;51.58;98520.63;4984208;28;123652;-75
2023/04/07 05:23:24;;;;;;;;;;;10.40;78.00;;;10.67;51.20;98514.78;4966739;28;123929;-76
2023/04/07 05:25:59;;;;;;;;;;;10.40;78.30;;;10.67;51.60;98521.13;4965799;28;114648;-74
2023/04/07 05:28:28;;;;;;;;;;;10.40;78.30;;;10.68;51.28;98521.94;4982996;28;114557;-74
2023/04/07 05:31:36;;;;;;;;;;;10.40;78.30;;;10.66;51.70;98518.66;4985486;28;124104;-75
2023/04/07 05:34:18;;;;;;;;;;;10.40;78.30;;;10.61;51.29;98523.22;4963092;28;124619;-74
2023/04/07 05:37:18;;;;;;;;;;;10.30;78.20;;;10.60;51.39;98524.34;4985649;28;114434;-77
2023/04/07 05:39:53;;;;;;;;;;;10.40;78.40;;;10.60;51.97;98521.56;4973313;28;113735;-75
2023/04/07 05:42:20;;;;;;;;;;;10.30;78.40;;;10.58;51.69;98511.97;4981160;28;124383;-74
2023/04/07 05:44:55;;;;;;;;;;;10.30;78.40;;;10.60;51.72;98521.56;4963885;28;126628;-74
2023/04/07 05:51:02;;;;;;;;;;;10.30;78.50;;;10.61;51.36;98514.94;4945614;28;114259;-73
2023/04/07 05:54:00;;;;;;;;;;;10.30;78.60;;;10.60;51.72;98516.03;4931335;28;123344;-74
2023/04/07 05:57:03;;;;;;;;;;;10.30;78.50;;;10.62;51.42;98515.75;4944979;28;121724;-75
2023/04/07 05:59:46;;;;;;;;;;;10.30;78.40;;;10.65;51.29;98519.81;4902272;28;114008;-74
2023/04/07 06:02:26;;;;;;;;;;;10.30;78.50;;;10.68;51.64;98521.94;4947775;28;114554;-74
2023/04/07 06:05:24;;;;;;;;;;;10.30;78.50;;;10.68;51.32;98525.50;4947205;28;124002;-74
2023/04/07 06:08:05;;;;;;;;;;;10.40;78.60;;;10.71;51.41;98522.09;4883387;28;124506;-74
2023/04/07 06:10:31;;;;;;;;;;;10.40;78.50;;;10.72;51.33;98511.84;4905800;28;113676;-76
2023/04/07 06:13:33;;;;;;;;;;;10.40;78.50;;;10.76;51.66;98524.72;4934940;28;113746;-74
2023/04/07 06:16:08;;;;;;;;;;;10.40;78.50;;;10.77;51.41;98528.28;4904964;28;123369;-76
2023/04/07 06:18:44;;;;;;;;;;;10.40;78.50;;;10.77;51.34;98528.28;4943751;28;123893;-74
2023/04/07 06:21:33;;;;;;;;;;;10.40;78.40;;;10.77;51.17;98520.84;4929841;28;115261;-74
2023/04/07 06:24:18;;;;;;;;;;;10.50;78.50;;;10.82;51.41;98522.63;4922645;28;114495;-75
2023/04/07 06:26:53;;;;;;;;;;;10.50;78.50;;;10.81;51.09;98527.34;4954474;28;124359;-74
2023/04/07 06:29:23;;;;;;;;;;;10.50;78.40;;;10.80;51.26;98522.13;5005422;28;124207;-74
2023/04/07 06:32:42;;;;;;;;;;;10.50;78.40;;;10.80;51.07;98525.72;4991953;28;113333;-74
2023/04/07 06:35:27;;;;;;;;;;;10.50;78.40;;;10.85;51.33;98527.50;5001701;28;113562;-77
2023/04/07 06:37:53;;;;;;;;;;;10.50;78.50;;;10.88;51.41;98526.88;4985590;28;123807;-74
2023/04/07 06:43:46;;;;;;;;;;;10.50;78.50;;;10.96;50.80;98522.47;5000842;28;114966;-75
2023/04/07 06:46:13;;;;;;;;;;;10.60;78.40;;;10.98;50.84;98525.75;4970820;28;113772;-74
2023/04/07 06:48:41;;;;;;;;;;;10.60;78.60;;;11.00;51.27;98518.75;4950931;28;123282;-75
2023/04/07 06:51:08;;;;;;;;;;;10.60;79.00;;;11.00;51.24;98524.28;5004683;28;123405;-75
2023/04/07 06:53:36;;;;;;;;;;;10.60;78.90;;;11.04;51.30;98517.00;5011894;28;114792;-75
2023/04/07 06:56:07;;;;;;;;;;;10.60;79.10;;;11.08;51.72;98519.13;4992903;28;112979;-75
2023/04/07 06:58:34;;;;;;;;;;;10.70;79.20;;;11.14;51.60;98513.09;5000590;28;124189;-77
2023/04/07 07:01:01;;;;;;;;;;;10.70;79.30;;;11.20;51.75;98519.28;5010682;28;124797;-76
2023/04/07 07:03:28;;;;;;;;;;;10.70;79.40;;;11.22;51.46;98517.00;4981601;28;114763;-75
2023/04/07 07:05:57;;;;;;;;;;;10.80;79.70;;;11.25;51.87;98521.88;5019768;28;113711;-74
2023/04/07 07:08:24;;;;;;;;;;;10.80;80.00;;;11.25;51.99;98513.59;4985118;28;123410;-75
2023/04/07 07:10:53;;;;;;;;;;;10.80;80.00;;;11.27;51.93;98512.13;5017878;28;123082;-79
2023/04/07 07:13:22;;;;;;;;;;;10.90;80.20;;;11.31;51.67;98506.78;4989657;28;114083;-74
2023/04/07 07:15:52;;;;;;;;;;;10.90;80.20;;;11.36;52.12;98509.38;5018457;28;115128;-76
2023/04/07 07:18:18;;;;;;;;;;;10.90;80.30;;;11.40;52.03;98507.59;4984424;28;124819;-76
2023/04/07 07:20:45;;;;;;;;;;;11.00;80.30;;;11.44;51.37;98507.75;5022355;28;124076;-74
2023/04/07 07:23:13;;;;;;;;;;;11.00;80.20;;;11.47;51.66;98507.94;5009237;28;114185;-77
2023/04/07 07:25:43;;;;;;;;;;;11.00;80.30;;;11.50;51.88;98512.00;4989579;28;113134;-77
2023/04/07 07:28:12;;;;;;;;;;;11.10;80.20;;;11.51;51.54;98510.84;5018235;27;123373;-76
2023/04/07 07:30:41;;;;;;;;;;;11.10;80.10;;;11.54;51.55;98510.19;5027089;27;123088;-76
2023/04/07 07:33:08;;;;;;;;;;;11.10;80.10;;;11.53;51.56;98511.34;5004550;28;114703;-76
2023/04/07 07:35:36;;;;;;;;;;;11.10;79.90;;;11.53;51.22;98518.84;5002136;28;114826;-75
2023/04/07 07:38:03;;;;;;;;;;;11.10;79.70;;;11.54;51.41;98512.16;5003298;28;122868;-76
2023/04/07 07:40:29;;;;;;;;;;;11.20;79.60;;;11.56;51.01;98521.75;5032764;27;124064;-86
2023/04/07 07:43:03;;;;;;;;;;;11.20;79.50;;;11.60;51.25;98516.38;5024047;28;114263;-75
2023/04/07 07:45:29;;;;;;;;;;;11.20;79.40;;;11.63;51.15;98524.84;5018178;28;113954;-77
2023/04/07 07:47:58;;;;;;;;;;;11.20;79.40;;;11.64;50.51;98525.66;5020258;28;125057;-75
2023/04/07 07:50:24;;;;;;;;;;;11.20;79.40;;;11.66;50.67;98526.13;5014177;28;124179;-74
2023/04/07 07:52:53;;;;;;;;;;;11.20;79.30;;;11.66;50.81;98528.88;4992275;28;113758;-75
2023/04/07 07:55:19;;;;;;;;;;;11.30;79.30;;;11.66;50.70;98523.34;5007399;28;112930;-75
2023/04/07 07:57:46;;;;;;;;;;;11.30;79.20;;;11.69;50.92;98528.25;5008734;28;124681;-76
2023/04/07 08:00:12;;;;;;;;;;;11.30;79.10;;;11.75;50.86;98524.19;5015648;27;124123;-88
2023/04/07 08:02:39;;;;;;;;;;;11.40;79.10;;;11.83;50.58;98528.09;4983607;28;114500;-93
2023/04/07 08:05:05;;;;;;;;;;;11.40;79.30;;;11.89;50.35;98516.53;5022066;27;114888;-79
2023/04/07 08:07:32;;;;;;;;;;;11.40;79.20;;;11.93;50.27;98525.81;5000783;28;124187;-75
2023/04/07 08:10:00;;;;;;;;;;;11.50;79.00;;;12.04;50.25;98522.72;5021116;28;124102;-74
2023/04/07 08:12:27;;;;;;;;;;;11.50;79.00;;;12.15;50.02;98519.25;5010257;28;114493;-74
2023/04/07 08:14:53;;;;;;;;;;;11.60;79.30;;;12.21;50.62;98522.66;5007402;28;113686;-74
2023/04/07 08:17:21;;;;;;;;;;;11.60;80.00;;;12.25;50.52;98523.63;5020053;28;124160;-75
2023/04/07 08:19:48;;;;;;;;;;;11.70;80.20;;;12.27;50.53;98526.88;5011230;28;123961;-75
2023/04/07 08:22:18;;;;;;;;;;;11.70;79.80;;;12.29;50.68;98530.13;4994076;28;114119;-74
2023/04/07 08:24:45;;;;;;;;;;;11.80;79.70;;;12.31;50.40;98536.16;4996884;28;112844;-74
2023/04/07 08:27:12;;;;;;;;;;;11.80;79.50;;;12.31;50.19;98538.94;5026608;27;124023;-77
2023/04/07 08:29:38;;;;;;;;;;;11.80;79.10;;;12.33;49.88;98536.66;4985957;28;123935;-75
2023/04/07 08:32:09;;;;;;;;;;;11.50;78.70;;;12.40;50.18;98541.66;5015618;28;114725;-73
2023/04/07 08:34:38;;;;;;;;;;;11.90;79.10;;;12.52;49.66;98538.19;5016478;28;113385;-73
2023/04/07 08:37:04;;;;;;;;;;;12.00;79.20;;;12.64;49.50;98535.56;4985727;28;123776;-74
2023/04/07 08:39:30;;;;;;;;;;;12.00;79.20;;;12.71;49.60;98546.13;5001025;28;125546;-74
2023/04/07 08:41:57;;;;;;;;;;;12.10;79.20;;;12.77;49.58;98542.03;5011950;28;114434;-73
2023/04/07 08:44:24;;;;;;;;;;;12.20;79.20;;;12.81;49.29;98538.25;5019910;28;113329;-73
2023/04/07 08:46:56;;;;;;;;;;;12.20;79.00;;;12.83;49.34;98535.94;4980840;28;124286;-77
2023/04/07 08:49:28;;;;;;;;;;;12.20;78.80;;;12.83;49.18;98535.94;5023628;28;123080;-73
2023/04/07 08:51:55;;;;;;;;;;;13.40;79.70;;;12.82;49.26;98528.78;4990011;28;114805;-73
2023/04/07 08:54:25;;;;;;;;;;;12.30;78.80;;;12.86;49.92;98534.47;5006283;28;114784;-85
2023/04/07 08:56:51;;;;;;;;;;;12.30;79.10;;;12.94;49.63;98530.03;4989801;28;124808;-71
2023/04/07 08:59:20;;;;;;;;;;;12.70;79.50;;;13.01;49.46;98522.81;5004687;28;123925;-90
2023/04/07 09:01:46;;;;;;;;;;;12.50;79.40;;;13.08;49.32;98538.09;4989482;28;113719;-74
2023/04/07 09:04:13;;;;;;;;;;;12.50;79.00;;;13.09;49.12;98536.97;5020996;28;113684;-72
2023/04/07 09:06:39;;;;;;;;;;;12.60;78.70;;;13.12;49.59;98536.28;4973562;28;123689;-79
2023/04/07 09:09:08;;;;;;;;;;;12.60;78.90;;;13.15;49.93;98543.94;4995961;28;123671;-73
2023/04/07 09:11:35;;;;;;;;;;;12.60;79.50;;;13.20;49.70;98541.78;5022871;28;113598;-74
2023/04/07 09:14:02;;;;;;;;;;;12.70;79.30;;;13.28;49.69;98539.31;5004886;28;113784;-69
2023/04/07 09:16:29;;;;;;;;;;;12.80;79.40;;;13.37;49.14;98545.63;5004883;28;123662;-75
2023/04/07 09:18:59;;;;;;;;;;;12.90;78.90;;;13.44;48.91;98543.13;5002447;28;123834;-73
2023/04/07 09:21:28;;;;;;;;;;;12.90;78.60;;;13.48;48.57;98538.50;4997536;28;113485;-77
2023/04/07 09:23:54;;;;;;;;;;;13.00;78.50;;;13.56;48.67;98542.38;5005862;28;113697;-75
2023/04/07 09:26:26;;;;;;;;;;;13.00;78.30;;;13.64;48.28;98535.94;5005579;28;124529;-72
2023/04/07 09:28:54;;;;;;;;;;;13.10;78.10;;;13.70;48.00;98531.78;4974121;28;123488;-72
2023/04/07 09:31:41;;;;;;;;;;;13.10;77.70;;;13.73;47.84;98531.13;4991181;28;114436;-73
2023/04/07 09:34:30;;;;;;;;;;;13.10;77.50;;;13.73;47.89;98531.13;5008332;28;113572;-72
2023/04/07 09:36:57;;;;;;;;;;;13.20;77.60;;;13.78;47.79;98533.72;4986554;28;123291;-73
2023/04/07 09:39:24;;;;;;;;;;;13.20;77.50;;;13.82;47.42;98537.41;5005334;28;125312;-72
2023/04/07 09:41:54;;;;;;;;;;;13.20;76.90;;;13.83;47.57;98535.44;4987946;28;115436;-74
2023/04/07 09:44:21;;;;;;;;;;;13.30;76.80;;;13.86;47.56;98538.38;5023527;28;114900;-73
2023/04/07 09:46:58;;;;;;;;;;;13.30;76.80;;;13.92;47.19;98533.41;5021028;28;124589;-72
2023/04/07 09:49:25;;;;;;;;;;;13.40;76.70;;;13.92;47.09;98537.00;5012938;28;123884;-72
2023/04/07 09:51:58;;;;;;;;;;;13.40;76.30;;;13.88;47.09;98535.25;5006840;28;115190;-72
2023/04/07 09:54:35;;;;;;;;;;;13.40;76.40;;;13.87;47.06;98531.66;5005680;28;114335;-72
2023/04/07 09:57:03;;;;;;;;;;;13.40;76.40;;;13.86;47.14;98527.25;5004873;28;124188;-72
2023/04/07 09:59:30;;;;;;;;;;;13.30;76.40;;;13.91;47.09;98531.78;5028704;27;123194;-71
2023/04/07 10:02:01;;;;;;;;;;;13.40;76.50;;;13.95;47.15;98523.59;5007163;28;114619;-75
2023/04/07 10:04:32;;;;;;;;;;;13.40;76.50;;;14.01;47.13;98536.91;5010611;28;113843;-75
2023/04/07 10:06:59;;;;;;;;;;;13.50;76.40;;;14.06;46.79;98530.34;5001617;28;123798;-75
2023/04/07 17:38:51;;;;;;;;;;;13.00;88.40;;;12.40;59.20;98694.06;5083287;27;96940;-76
2023/04/07 17:41:18;;;;;;;;;;;13.00;89.80;;;12.62;59.05;98698.59;5071346;27;106259;-77
2023/04/07 17:43:49;;;;;;;;;;;13.00;90.30;;;12.85;58.93;98701.97;5089695;27;123951;-80
2023/04/07 17:46:15;;;;;;;;;;;13.10;90.30;;;13.04;57.78;98704.38;5051461;27;123137;-77
2023/04/07 17:48:43;;;;;;;;;;;13.20;90.20;;;13.20;57.15;98702.69;5068098;27;107090;-78
2023/04/07 17:51:10;;;;;;;;;;;13.30;90.00;;;13.32;56.68;98709.53;5076732;27;106299;-79
2023/04/07 17:53:36;;;;;;;;;;;13.30;89.90;;;13.41;56.00;98713.91;5064311;27;124534;-77
2023/04/07 17:56:02;;;;;;;;;;;13.40;89.70;;;13.48;56.01;98719.72;5092188;27;123827;-76
2023/04/07 17:58:29;;;;;;;;;;;13.40;89.50;;;13.56;55.79;98725.56;5065914;27;107549;-75
2023/04/07 18:00:55;;;;;;;;;;;13.40;89.40;;;13.60;55.62;98721.81;5063833;27;106694;-78
2023/04/07 18:03:21;;;;;;;;;;;13.50;89.40;;;13.62;55.50;98725.06;5051786;27;124093;-75
2023/04/07 18:05:50;;;;;;;;;;;13.50;89.00;;;13.62;55.37;98735.34;5046363;27;124143;-79
2023/04/07 18:08:21;;;;;;;;;;;13.50;88.90;;;13.60;55.14;98727.34;5071583;27;106588;-79
2023/04/07 18:10:47;;;;;;;;;;;13.50;88.80;;;13.59;55.16;98736.81;5042926;27;106995;-80
2023/04/07 18:13:14;;;;;;;;;;;13.50;88.60;;;13.57;55.05;98736.34;5036504;27;124861;-79
2023/04/07 18:15:43;;;;;;;;;;;13.40;88.60;;;13.54;54.60;98734.25;5039099;27;122925;-80
2023/04/07 18:18:09;;;;;;;;;;;13.40;88.40;;;13.49;54.71;98737.22;5047592;27;107909;-79
2023/04/07 18:20:35;;;;;;;;;;;13.30;88.10;;;13.46;54.62;98743.44;5047626;27;107056;-78
2023/04/07 18:23:01;;;;;;;;;;;13.30;88.20;;;13.41;54.75;98751.94;5041531;27;123876;-80
2023/04/07 18:25:28;;;;;;;;;;;13.20;87.90;;;13.37;54.65;98751.78;5033807;27;125442;-77
2023/04/07 18:27:54;;;;;;;;;;;13.20;87.90;;;13.33;54.50;98755.56;5042147;27;107646;-78
2023/04/07 18:30:21;;;;;;;;;;;13.20;87.80;;;13.26;54.48;98756.06;5046343;27;106391;-81
2023/04/07 18:32:48;;;;;;;;;;;13.10;87.50;;;13.22;54.42;98771.72;5042099;27;124252;-80
2023/04/07 18:35:14;;;;;;;;;;;13.10;87.40;;;13.19;54.57;98772.34;5059671;27;123108;-80
2023/04/07 18:37:41;;;;;;;;;;;13.10;87.60;;;13.14;54.35;98769.78;5043605;27;108344;-77
2023/04/07 18:40:12;;;;;;;;;;;13.00;88.10;;;13.14;54.14;98783.66;5043628;27;106081;-78
2023/04/07 18:42:38;;;;;;;;;;;13.00;87.40;;;13.11;54.30;98782.34;5047798;27;123784;-79
2023/04/07 18:45:05;;;;;;;;;;;12.20;86.50;;;13.08;54.32;98794.09;5043698;27;123803;-79
2023/04/07 18:47:37;;;;;;;;;;;12.90;87.10;;;13.07;54.22;98798.00;5041180;27;107258;-78
2023/04/07 18:50:06;;;;;;;;;;;12.90;86.90;;;13.04;53.67;98799.47;5036482;27;106912;-79
2023/04/07 18:52:33;;;;;;;;;;;12.90;86.90;;;13.00;53.82;98811.56;5032190;27;124019;-79
2023/04/07 18:54:59;;;;;;;;;;;12.80;86.60;;;12.95;53.91;98814.50;5037894;27;124274;-77
2023/04/07 18:57:26;;;;;;;;;;;12.80;86.50;;;12.92;53.77;98809.59;5030709;27;106458;-77
2023/04/07 18:59:52;;;;;;;;;;;12.80;86.50;;;12.90;53.65;98811.91;5024289;27;107102;-77
2023/04/07 19:02:19;;;;;;;;;;;12.70;86.40;;;12.87;53.83;98815.31;5026305;27;123445;-79
2023/04/07 19:04:45;;;;;;;;;;;12.70;86.40;;;12.86;54.11;98819.25;5065322;27;123950;-80
2023/04/07 19:07:13;;;;;;;;;;;12.70;86.50;;;12.82;54.33;98822.69;5035057;27;107199;-79
2023/04/07 19:09:42;;;;;;;;;;;12.70;86.70;;;12.77;54.03;98825.63;5061022;27;106055;-79
2023/04/07 19:12:12;;;;;;;;;;;12.60;86.70;;;12.74;54.11;98834.59;5019598;28;124866;-80
2023/04/07 19:14:42;;;;;;;;;;;12.60;86.80;;;12.71;54.41;98834.44;5029981;28;123857;-79